createdAt,value
2023-02-13T00:00:48.122Z,96.92
2023-02-13T00:03:14.594Z,96.72
2023-02-13T00:05:40.834Z,96.81
2023-02-13T00:08:07.239Z,96.96
2023-02-13T00:10:33.595Z,97.20
2023-02-13T00:12:59.920Z,97.29
2023-02-13T00:15:26.328Z,97.43
2023-02-13T00:17:52.653Z,97.80
2023-02-13T00:20:19.009Z,97.60
2023-02-13T00:22:45.477Z,97.85
2023-02-13T00:25:11.792Z,98.84
2023-02-13T00:27:38.173Z,99.87
2023-02-13T00:30:04.503Z,99.73
2023-02-13T00:32:30.876Z,99.19
2023-02-13T00:34:57.305Z,98.67
2023-02-13T00:37:23.597Z,98.20
2023-02-13T00:39:49.934Z,97.78
2023-02-13T00:42:16.307Z,97.48
2023-02-13T00:44:42.625Z,97.18
2023-02-13T00:47:09.004Z,96.96
2023-02-13T00:49:35.355Z,97.08
2023-02-13T00:52:01.756Z,96.99
2023-02-13T00:54:28.071Z,97.08
2023-02-13T00:56:54.511Z,97.40
2023-02-13T00:59:20.793Z,97.46
2023-02-13T01:01:47.245Z,97.77
2023-02-13T01:04:13.537Z,98.12
2023-02-13T01:06:39.907Z,97.92
2023-02-13T01:09:06.309Z,98.40
2023-02-13T01:11:32.624Z,99.52
2023-02-13T01:13:58.981Z,100.00
2023-02-13T01:16:25.442Z,99.92
2023-02-13T01:18:51.742Z,99.52
2023-02-13T01:21:18.110Z,98.93
2023-02-13T01:23:44.443Z,98.40
2023-02-13T01:26:10.798Z,98.00
2023-02-13T01:28:37.272Z,97.83
2023-02-13T01:31:03.739Z,97.58
2023-02-13T01:33:29.921Z,97.45
2023-02-13T01:35:56.359Z,97.52
2023-02-13T01:38:22.687Z,97.71
2023-02-13T01:40:49.053Z,97.84
2023-02-13T01:43:15.409Z,97.87
2023-02-13T01:45:41.781Z,97.86
2023-02-13T01:48:08.133Z,97.91
2023-02-13T01:50:34.583Z,98.20
2023-02-13T01:53:00.932Z,97.99
2023-02-13T01:55:27.306Z,98.25
2023-02-13T01:57:53.664Z,99.58
2023-02-13T02:00:19.997Z,100.00
2023-02-13T02:02:46.436Z,100.00
2023-02-13T02:05:12.696Z,99.65
2023-02-13T02:07:39.101Z,98.80
2023-02-13T02:10:05.430Z,98.29
2023-02-13T02:12:31.791Z,97.85
2023-02-13T02:14:58.172Z,97.52
2023-02-13T02:17:24.531Z,97.27
2023-02-13T02:19:50.903Z,97.12
2023-02-13T02:22:17.221Z,97.03
2023-02-13T02:24:43.598Z,97.09
2023-02-13T02:27:09.997Z,97.16
2023-02-13T02:29:36.319Z,97.17
2023-02-13T02:32:02.685Z,97.23
2023-02-13T02:34:29.068Z,97.45
2023-02-13T02:36:55.387Z,97.59
2023-02-13T02:39:21.800Z,97.51
2023-02-13T02:41:48.132Z,98.30
2023-02-13T02:44:14.501Z,99.53
2023-02-13T02:46:40.925Z,99.90
2023-02-13T02:49:07.283Z,99.27
2023-02-13T02:51:33.639Z,98.66
2023-02-13T02:53:59.981Z,98.09
2023-02-13T02:56:26.357Z,97.53
2023-02-13T02:58:52.703Z,97.19
2023-02-13T03:01:19.182Z,97.00
2023-02-13T03:03:45.483Z,96.71
2023-02-13T03:06:11.780Z,96.58
2023-02-13T03:08:38.210Z,96.66
2023-02-13T03:11:04.558Z,96.75
2023-02-13T03:13:31.044Z,96.99
2023-02-13T03:15:57.335Z,97.04
2023-02-13T03:18:23.681Z,97.10
2023-02-13T03:20:50.005Z,97.40
2023-02-13T03:23:16.474Z,97.55
2023-02-13T03:25:42.762Z,97.61
2023-02-13T03:28:09.163Z,98.50
2023-02-13T03:30:35.523Z,99.52
2023-02-13T03:33:01.884Z,99.76
2023-02-13T03:35:28.312Z,99.45
2023-02-13T03:37:54.614Z,98.75
2023-02-13T03:40:20.983Z,98.01
2023-02-13T03:42:47.343Z,97.32
2023-02-13T03:45:13.680Z,96.83
2023-02-13T03:47:40.110Z,96.24
2023-02-13T03:50:06.487Z,95.84
2023-02-13T03:52:32.813Z,95.57
2023-02-13T03:54:59.184Z,95.34
2023-02-13T03:57:25.580Z,95.35
2023-02-13T03:59:51.910Z,95.37
2023-02-13T04:02:18.342Z,95.38
2023-02-13T04:04:44.624Z,95.50
2023-02-13T04:07:10.942Z,95.78
2023-02-13T04:09:37.297Z,95.72
2023-02-13T04:12:03.611Z,95.83
2023-02-13T04:14:29.951Z,96.54
2023-02-13T04:16:56.311Z,97.34
2023-02-13T04:19:22.636Z,97.29
2023-02-13T04:21:49.001Z,96.73
2023-02-13T04:24:15.386Z,96.13
2023-02-13T04:26:41.718Z,95.57
2023-02-13T04:29:08.057Z,95.21
2023-02-13T04:31:34.515Z,94.89
2023-02-13T04:34:00.868Z,94.78
2023-02-13T04:36:27.222Z,94.74
2023-02-13T04:38:53.598Z,94.83
2023-02-13T04:41:19.969Z,95.01
2023-02-13T04:43:46.310Z,95.23
2023-02-13T04:46:14.712Z,95.54
2023-02-13T04:48:39.102Z,95.91
2023-02-13T04:51:05.413Z,96.29
2023-02-13T04:53:31.752Z,96.63
2023-02-13T04:55:58.106Z,96.80
2023-02-13T04:58:24.549Z,97.31
2023-02-13T05:00:50.859Z,98.39
2023-02-13T05:03:17.213Z,99.37
2023-02-13T05:05:43.605Z,99.57
2023-02-13T05:08:09.940Z,99.19
2023-02-13T05:10:36.271Z,98.59
2023-02-13T05:13:02.648Z,98.04
2023-02-13T05:15:29.026Z,97.62
2023-02-13T05:17:55.337Z,97.30
2023-02-13T05:20:21.719Z,96.99
2023-02-13T05:22:48.101Z,96.89
2023-02-13T05:25:14.417Z,96.85
2023-02-13T05:27:40.842Z,96.85
2023-02-13T05:30:07.213Z,96.90
2023-02-13T05:32:33.643Z,97.03
2023-02-13T05:34:59.943Z,97.17
2023-02-13T05:37:26.318Z,97.32
2023-02-13T05:39:52.657Z,97.52
2023-02-13T05:42:19.117Z,97.62
2023-02-13T05:44:45.496Z,98.12
2023-02-13T05:47:11.861Z,99.17
2023-02-13T05:49:38.225Z,99.94
2023-02-13T05:52:04.561Z,99.97
2023-02-13T05:54:30.877Z,99.42
2023-02-13T05:56:57.312Z,98.82
2023-02-13T05:59:24.094Z,98.25
2023-02-13T06:01:50.018Z,97.79
2023-02-13T06:04:16.432Z,97.50
2023-02-13T06:06:42.701Z,97.34
2023-02-13T06:09:09.070Z,97.34
2023-02-13T06:11:35.449Z,97.45
2023-02-13T06:14:01.822Z,97.59
2023-02-13T06:16:28.244Z,97.69
2023-02-13T06:18:54.576Z,97.80
2023-02-13T06:21:22.515Z,98.00
2023-02-13T06:23:47.241Z,98.24
2023-02-13T06:26:13.594Z,98.41
2023-02-13T06:28:40.047Z,98.63
2023-02-13T06:31:06.440Z,99.20
2023-02-13T06:33:32.717Z,100.00
2023-02-13T06:35:59.065Z,100.00
2023-02-13T06:38:25.715Z,100.00
2023-02-13T06:40:52.147Z,100.00
2023-02-13T06:43:18.392Z,100.00
2023-02-13T06:45:45.029Z,99.69
2023-02-13T06:48:11.386Z,99.18
2023-02-13T06:50:37.760Z,98.81
2023-02-13T06:53:04.191Z,98.60
2023-02-13T06:55:30.542Z,98.50
2023-02-13T06:57:56.887Z,98.46
2023-02-13T07:00:24.290Z,98.46
2023-02-13T07:02:49.997Z,98.52
2023-02-13T07:05:16.287Z,98.62
2023-02-13T07:07:42.632Z,98.72
2023-02-13T07:10:10.035Z,99.00
2023-02-13T07:12:36.352Z,99.58
2023-02-13T07:15:02.760Z,100.00
2023-02-13T07:17:29.117Z,100.00
2023-02-13T07:19:55.525Z,100.00
2023-02-13T07:22:21.926Z,100.00
2023-02-13T07:24:48.259Z,100.00
2023-02-13T07:27:14.581Z,100.00
2023-02-13T07:29:40.996Z,100.00
2023-02-13T07:32:07.425Z,100.00
2023-02-13T07:34:36.294Z,99.48
2023-02-13T07:37:02.620Z,98.86
2023-02-13T07:39:28.995Z,98.28
2023-02-13T07:41:55.357Z,97.89
2023-02-13T07:44:21.728Z,97.69
2023-02-13T07:46:48.135Z,98.15
2023-02-13T07:49:14.433Z,99.01
2023-02-13T07:51:40.767Z,99.22
2023-02-13T07:54:07.160Z,98.78
2023-02-13T07:56:33.492Z,98.45
2023-02-13T07:58:59.854Z,98.16
2023-02-13T08:01:26.256Z,98.52
2023-02-13T08:03:52.687Z,99.37
2023-02-13T08:06:19.163Z,100.00
2023-02-13T08:08:45.534Z,100.00
2023-02-13T08:11:12.277Z,99.90
2023-02-13T08:13:38.675Z,99.38
2023-02-13T08:16:05.035Z,98.70
2023-02-13T08:18:31.422Z,98.13
2023-02-13T08:20:57.872Z,97.58
2023-02-13T08:23:24.218Z,97.03
2023-02-13T08:25:50.584Z,96.70
2023-02-13T08:28:16.991Z,96.28
2023-02-13T08:30:43.329Z,96.06
2023-02-13T08:33:09.675Z,95.76
2023-02-13T08:35:36.084Z,95.41
2023-02-13T08:38:02.438Z,95.15
2023-02-13T08:40:28.766Z,94.94
2023-02-13T08:42:56.947Z,94.87
2023-02-13T08:45:21.524Z,95.40
2023-02-13T08:47:47.924Z,96.23
2023-02-13T08:50:14.285Z,97.61
2023-02-13T08:52:40.654Z,98.75
2023-02-13T08:55:07.232Z,98.89
2023-02-13T08:57:33.611Z,98.64
2023-02-13T08:59:59.966Z,98.00
2023-02-13T09:02:26.516Z,97.24
2023-02-13T09:04:52.720Z,96.76
2023-02-13T09:07:19.098Z,96.25
2023-02-13T09:09:45.732Z,95.71
2023-02-13T09:12:12.149Z,95.21
2023-02-13T09:14:38.478Z,94.86
2023-02-13T09:17:04.877Z,94.69
2023-02-13T09:19:31.277Z,94.42
2023-02-13T09:21:57.611Z,94.08
2023-02-13T09:24:23.963Z,93.90
2023-02-13T09:26:50.349Z,93.67
2023-02-13T09:29:16.731Z,93.63
2023-02-13T09:31:43.231Z,94.57
2023-02-13T09:34:09.666Z,96.03
2023-02-13T09:36:36.022Z,97.61
2023-02-13T09:39:02.384Z,98.74
2023-02-13T09:41:28.740Z,98.46
2023-02-13T09:43:55.186Z,97.89
2023-02-13T09:46:21.563Z,96.97
2023-02-13T09:48:47.903Z,96.09
2023-02-13T09:51:14.572Z,95.56
2023-02-13T09:53:40.921Z,95.23
2023-02-13T09:56:07.307Z,94.70
2023-02-13T09:58:33.880Z,94.10
2023-02-13T10:01:00.264Z,93.17
2023-02-13T10:03:26.817Z,93.46
2023-02-13T10:05:55.207Z,93.44
2023-02-13T10:08:19.632Z,93.36
2023-02-13T10:10:45.964Z,93.67
2023-02-13T10:13:12.305Z,93.25
2023-02-13T10:15:38.814Z,92.72
2023-02-13T10:18:05.006Z,92.77
2023-02-13T10:20:31.407Z,93.21
2023-02-13T10:22:57.764Z,98.08
2023-02-13T10:25:24.459Z,100.00
2023-02-13T10:27:50.794Z,99.00
2023-02-13T10:30:17.176Z,97.33
2023-02-13T10:32:43.473Z,95.77
2023-02-13T10:35:09.927Z,94.32
2023-02-13T10:37:36.248Z,93.07
2023-02-13T10:40:02.596Z,92.61
2023-02-13T10:42:28.936Z,91.20
2023-02-13T10:44:55.300Z,90.64
2023-02-13T10:47:21.615Z,89.77
2023-02-13T10:49:48.187Z,90.19
2023-02-13T10:52:14.549Z,88.53
2023-02-13T10:54:40.879Z,87.70
2023-02-13T10:57:07.450Z,85.18
2023-02-13T10:59:33.788Z,83.63
2023-02-13T11:02:00.299Z,82.81
2023-02-13T11:04:26.662Z,84.54
2023-02-13T11:06:53.190Z,85.17
2023-02-13T11:09:19.688Z,85.11
2023-02-13T11:11:46.053Z,84.89
2023-02-13T11:14:12.709Z,84.46
2023-02-13T11:16:39.111Z,83.98
2023-02-13T11:19:05.454Z,83.35
2023-02-13T11:21:31.778Z,82.31
2023-02-13T11:23:58.236Z,81.46
2023-02-13T11:26:24.619Z,80.71
2023-02-13T11:28:51.010Z,79.68
2023-02-13T11:31:17.388Z,79.13
2023-02-13T11:33:43.666Z,78.15
2023-02-13T11:36:10.013Z,77.46
2023-02-13T11:38:36.382Z,77.05
2023-02-13T11:41:02.920Z,76.19
2023-02-13T11:43:29.711Z,75.54
2023-02-13T11:45:56.072Z,75.07
2023-02-13T11:48:22.581Z,74.32
2023-02-13T11:50:48.945Z,73.98
2023-02-13T11:53:15.316Z,73.56
2023-02-13T11:55:41.683Z,73.11
2023-02-13T11:58:08.032Z,72.75
2023-02-13T12:00:34.669Z,72.35
2023-02-13T12:03:01.279Z,63.93
2023-02-13T12:05:27.556Z,55.05
2023-02-13T12:07:53.976Z,53.27
2023-02-13T12:10:20.510Z,51.14
2023-02-13T12:12:46.885Z,49.48
2023-02-13T12:15:13.199Z,48.67
2023-02-13T12:17:39.620Z,47.88
2023-02-13T12:20:06.037Z,48.21
2023-02-13T12:22:34.667Z,46.68
2023-02-13T12:24:58.860Z,45.24
2023-02-13T12:27:25.267Z,45.59
2023-02-13T12:29:51.580Z,45.76
2023-02-13T12:32:17.959Z,44.18
2023-02-13T12:34:44.417Z,45.19
2023-02-13T12:37:10.794Z,42.59
2023-02-13T12:39:37.157Z,42.49
2023-02-13T12:42:03.543Z,42.49
2023-02-13T12:44:29.910Z,41.76
2023-02-13T12:46:56.239Z,41.40
2023-02-13T12:49:22.577Z,41.46
2023-02-13T12:51:48.935Z,41.20
2023-02-13T12:54:15.309Z,41.23
2023-02-13T12:56:41.734Z,40.70
2023-02-13T12:59:08.039Z,40.82
2023-02-13T13:01:34.406Z,40.04
2023-02-13T13:04:00.727Z,40.46
2023-02-13T13:06:27.210Z,40.56
2023-02-13T13:08:53.565Z,40.09
2023-02-13T13:11:19.928Z,40.26
2023-02-13T13:13:46.685Z,40.15
2023-02-13T13:16:14.192Z,40.11
2023-02-13T13:18:39.450Z,39.74
2023-02-13T13:21:05.787Z,40.10
2023-02-13T13:23:34.573Z,39.91
2023-02-13T13:26:00.953Z,39.79
2023-02-13T13:28:27.623Z,40.50
2023-02-13T13:30:54.079Z,39.68
2023-02-13T13:33:20.309Z,39.92
2023-02-13T13:35:46.981Z,39.96
2023-02-13T13:38:13.345Z,39.32
2023-02-13T13:40:39.681Z,39.68
2023-02-13T13:43:06.243Z,40.08
2023-02-13T13:45:32.587Z,39.97
2023-02-13T13:47:59.022Z,40.31
2023-02-13T13:50:25.337Z,40.45
2023-02-13T13:52:51.702Z,40.29
2023-02-13T13:55:18.081Z,40.69
2023-02-13T13:57:44.496Z,40.73
2023-02-13T14:00:13.936Z,41.22
2023-02-13T14:02:37.202Z,40.99
2023-02-13T14:05:03.768Z,41.37
2023-02-13T14:07:30.096Z,40.29
2023-02-13T14:09:56.604Z,40.84
2023-02-13T14:12:22.975Z,41.16
2023-02-13T14:14:49.312Z,41.25
2023-02-13T14:17:15.823Z,41.40
2023-02-13T14:19:42.218Z,41.33
2023-02-13T14:22:08.636Z,41.71
2023-02-13T14:24:34.962Z,41.79
2023-02-13T14:27:06.229Z,42.25
2023-02-13T14:29:27.726Z,42.57
2023-02-13T14:31:54.576Z,42.48
2023-02-13T14:34:20.832Z,42.62
2023-02-13T14:36:47.245Z,42.86
2023-02-13T14:39:13.595Z,42.65
2023-02-13T14:41:41.355Z,43.00
2023-02-13T14:44:06.437Z,43.30
2023-02-13T14:46:33.063Z,43.41
2023-02-13T14:48:59.384Z,43.45
2023-02-13T14:51:25.757Z,43.53
2023-02-13T14:53:52.607Z,43.70
2023-02-13T14:56:19.353Z,43.97
2023-02-13T14:58:46.249Z,44.08
2023-02-13T15:01:12.943Z,44.60
2023-02-13T15:03:41.334Z,44.69
2023-02-13T15:06:08.052Z,44.87
2023-02-13T15:08:34.801Z,44.33
2023-02-13T15:11:01.753Z,44.78
2023-02-13T15:13:29.461Z,44.72
2023-02-13T15:15:55.442Z,45.23
2023-02-13T15:18:22.169Z,45.27
2023-02-13T15:20:48.550Z,45.60
2023-02-13T15:23:14.868Z,45.47
2023-02-13T15:25:41.247Z,45.36
2023-02-13T15:28:07.589Z,45.68
2023-02-13T15:30:33.943Z,45.84
2023-02-13T15:33:00.271Z,45.59
2023-02-13T15:35:26.647Z,45.98
2023-02-13T15:37:53.023Z,45.61
2023-02-13T15:40:19.413Z,46.12
2023-02-13T15:42:46.045Z,46.38
2023-02-13T15:45:12.384Z,46.78
2023-02-13T15:47:38.717Z,46.46
2023-02-13T15:50:05.113Z,46.47
2023-02-13T15:52:31.440Z,46.49
2023-02-13T15:54:58.039Z,46.41
2023-02-13T15:57:24.497Z,46.99
2023-02-13T15:59:50.784Z,47.02
2023-02-13T16:02:17.344Z,47.05
2023-02-13T16:04:43.721Z,47.83
2023-02-13T16:07:10.074Z,47.42
2023-02-13T16:09:36.467Z,47.41
2023-02-13T16:12:02.780Z,47.62
2023-02-13T16:14:29.168Z,47.44
2023-02-13T16:16:55.534Z,47.81
2023-02-13T16:19:21.857Z,48.13
2023-02-13T16:21:48.218Z,48.52
2023-02-13T16:24:14.593Z,48.45
2023-02-13T16:26:40.925Z,48.36
2023-02-13T16:29:07.374Z,48.71
2023-02-13T16:31:33.824Z,48.71
2023-02-13T16:34:00.128Z,48.73
2023-02-13T16:36:26.524Z,48.83
2023-02-13T16:38:52.876Z,49.04
2023-02-13T16:41:19.299Z,50.51
2023-02-13T16:43:45.714Z,52.91
2023-02-13T16:46:12.452Z,52.95
2023-02-13T16:48:38.875Z,53.52
2023-02-13T16:51:05.394Z,54.01
2023-02-13T16:53:34.011Z,54.85
2023-02-13T16:55:58.158Z,55.65
2023-02-13T16:58:24.557Z,56.52
2023-02-13T17:00:50.977Z,57.41
2023-02-13T17:03:17.316Z,58.39
2023-02-13T17:05:43.676Z,59.33
2023-02-13T17:08:10.052Z,60.19
2023-02-13T17:10:36.384Z,61.00
2023-02-13T17:13:02.765Z,61.71
2023-02-13T17:15:29.123Z,62.41
2023-02-13T17:17:55.468Z,63.12
2023-02-13T17:20:23.036Z,63.77
2023-02-13T17:22:49.347Z,64.47
2023-02-13T17:25:15.815Z,65.20
2023-02-13T17:27:42.343Z,65.90
2023-02-13T17:30:08.698Z,66.59
2023-02-13T17:32:35.015Z,67.33
2023-02-13T17:35:01.438Z,68.06
2023-02-13T17:37:27.784Z,68.72
2023-02-13T17:39:54.172Z,69.36
2023-02-13T17:42:20.618Z,70.07
2023-02-13T17:44:46.969Z,70.70
2023-02-13T17:47:13.359Z,71.26
2023-02-13T17:49:39.943Z,71.81
2023-02-13T17:52:06.384Z,72.41
2023-02-13T17:54:32.746Z,72.95
2023-02-13T17:56:59.170Z,74.09
2023-02-13T17:59:25.847Z,75.49
2023-02-13T18:01:51.897Z,76.10
2023-02-13T18:04:18.256Z,76.64
2023-02-13T18:06:44.626Z,77.15
2023-02-13T18:09:10.974Z,83.04
2023-02-13T18:11:37.335Z,83.90
2023-02-13T18:14:03.633Z,83.68
2023-02-13T18:16:30.042Z,83.60
2023-02-13T18:18:56.596Z,83.51
2023-02-13T18:21:23.012Z,83.51
2023-02-13T18:23:49.338Z,83.51
2023-02-13T18:26:16.120Z,83.58
2023-02-13T18:28:42.434Z,83.62
2023-02-13T18:31:09.010Z,83.71
2023-02-13T18:33:35.276Z,83.85
2023-02-13T18:36:02.760Z,83.99
2023-02-13T18:38:29.099Z,84.16
2023-02-13T18:40:55.553Z,84.39
2023-02-13T18:43:22.298Z,84.48
2023-02-13T18:45:48.723Z,84.64
2023-02-13T18:48:15.023Z,84.83
2023-02-13T18:50:41.784Z,85.03
2023-02-13T18:53:08.319Z,85.20
2023-02-13T18:55:34.685Z,85.39
2023-02-13T18:58:01.184Z,85.62
2023-02-13T19:00:27.637Z,85.82
2023-02-13T19:02:54.108Z,86.04
2023-02-13T19:05:20.651Z,86.30
2023-02-13T19:07:48.279Z,86.48
2023-02-13T19:10:14.648Z,86.71
2023-02-13T19:12:40.965Z,86.92
2023-02-13T19:15:07.356Z,87.14
2023-02-13T19:17:33.797Z,87.37
2023-02-13T19:20:00.212Z,87.57
2023-02-13T19:22:26.578Z,87.85
2023-02-13T19:24:55.153Z,87.95
2023-02-13T19:27:21.737Z,88.13
2023-02-13T19:29:48.111Z,89.39
2023-02-13T19:32:14.478Z,89.83
2023-02-13T19:34:40.864Z,89.98
2023-02-13T19:37:07.340Z,90.06
2023-02-13T19:39:33.681Z,90.12
2023-02-13T19:42:00.008Z,90.20
2023-02-13T19:44:26.397Z,90.27
2023-02-13T19:46:52.766Z,90.46
2023-02-13T19:49:19.139Z,90.50
2023-02-13T19:51:45.440Z,90.71
2023-02-13T19:54:11.898Z,90.89
2023-02-13T19:56:38.857Z,91.00
2023-02-13T19:59:05.220Z,91.19
2023-02-13T20:01:31.620Z,91.29
2023-02-13T20:03:58.445Z,91.53
2023-02-13T20:06:24.863Z,91.71
2023-02-13T20:08:51.263Z,91.81
2023-02-13T20:11:17.836Z,91.97
2023-02-13T20:13:44.317Z,92.12
2023-02-13T20:16:10.718Z,92.22
2023-02-13T20:18:37.156Z,92.34
2023-02-13T20:21:03.583Z,92.53
2023-02-13T20:23:30.018Z,92.65
2023-02-13T20:25:56.415Z,92.77
2023-02-13T20:28:22.757Z,92.86
2023-02-13T20:30:49.385Z,93.01
2023-02-13T20:33:15.850Z,93.18
2023-02-13T20:35:42.166Z,93.34
2023-02-13T20:38:08.563Z,93.47
2023-02-13T20:40:34.959Z,93.56
2023-02-13T20:43:01.388Z,93.70
2023-02-13T20:45:27.781Z,93.83
2023-02-13T20:47:54.108Z,93.99
2023-02-13T20:50:20.517Z,94.15
2023-02-13T20:52:46.897Z,94.33
2023-02-13T20:55:13.227Z,98.44
2023-02-13T20:57:39.607Z,99.35
2023-02-13T21:00:06.003Z,99.20
2023-02-13T21:02:32.351Z,98.87
2023-02-13T21:04:58.717Z,98.55
2023-02-13T21:07:25.038Z,98.21
2023-02-13T21:09:51.390Z,97.96
2023-02-13T21:12:17.785Z,97.78
2023-02-13T21:14:44.092Z,97.63
2023-02-13T21:17:10.508Z,97.66
2023-02-13T21:19:36.864Z,97.68
2023-02-13T21:22:03.233Z,97.54
2023-02-13T21:24:29.883Z,97.47
2023-02-13T21:26:56.223Z,97.46
2023-02-13T21:29:22.534Z,97.43
2023-02-13T21:31:49.129Z,97.56
2023-02-13T21:34:15.441Z,97.57
2023-02-13T21:36:41.786Z,97.54
2023-02-13T21:39:08.397Z,97.54
2023-02-13T21:41:34.742Z,97.54
2023-02-13T21:44:01.155Z,97.69
2023-02-13T21:46:27.604Z,97.69
2023-02-13T21:48:53.945Z,97.67
2023-02-13T21:51:20.270Z,97.74
2023-02-13T21:53:46.809Z,97.84
2023-02-13T21:56:13.182Z,97.90
2023-02-13T21:58:39.538Z,97.99
2023-02-13T22:01:11.451Z,97.95
2023-02-13T22:03:32.238Z,97.97
2023-02-13T22:05:58.611Z,97.99
2023-02-13T22:08:24.997Z,98.02
2023-02-13T22:10:51.402Z,98.03
2023-02-13T22:13:17.714Z,97.99
2023-02-13T22:15:44.056Z,97.92
2023-02-13T22:18:10.394Z,97.95
2023-02-13T22:20:36.877Z,97.96
2023-02-13T22:23:03.202Z,97.97
2023-02-13T22:25:29.547Z,97.92
2023-02-13T22:27:55.944Z,97.95
2023-02-13T22:30:22.304Z,97.96
2023-02-13T22:32:48.638Z,98.03
2023-02-13T22:35:15.004Z,98.13
2023-02-13T22:37:41.363Z,98.21
2023-02-13T22:40:07.709Z,98.29
2023-02-13T22:42:34.100Z,98.34
2023-02-13T22:45:00.480Z,98.41
2023-02-13T22:47:26.812Z,98.55
2023-02-13T22:49:53.197Z,98.69
2023-02-13T22:52:19.556Z,98.88
2023-02-13T22:54:45.937Z,98.92
2023-02-13T22:57:12.364Z,99.05
2023-02-13T22:59:40.189Z,99.16
2023-02-13T23:02:05.149Z,99.26
2023-02-13T23:04:31.556Z,99.38
2023-02-13T23:06:57.821Z,99.52
2023-02-13T23:09:24.232Z,99.56
2023-02-13T23:11:50.588Z,99.61
2023-02-13T23:14:16.934Z,99.71
2023-02-13T23:16:43.317Z,99.81
2023-02-13T23:19:09.672Z,99.96
2023-02-13T23:21:35.995Z,100.00
2023-02-13T23:24:02.338Z,100.00
2023-02-13T23:26:28.705Z,100.00
2023-02-13T23:28:55.046Z,100.00
2023-02-13T23:31:21.540Z,100.00
2023-02-13T23:33:47.753Z,100.00
2023-02-13T23:36:14.075Z,100.00
2023-02-13T23:38:40.403Z,100.00
2023-02-13T23:41:06.993Z,100.00
2023-02-13T23:43:33.314Z,100.00
2023-02-13T23:45:59.708Z,100.00
2023-02-13T23:48:26.058Z,100.00
2023-02-13T23:50:52.408Z,100.00
2023-02-13T23:53:18.738Z,100.00
2023-02-13T23:55:45.057Z,100.00
2023-02-13T23:58:11.435Z,100.00
